Sand Point, Michigan
Current Conditions -  °F | °C
As of 6:15 AM on Sunday 21 Dec 2014 (Local Time) from KBAX Reporting Station
Overcast Overcast  
Wind Chill: 19°   Ceiling: 3800
Heat Index: 19°   Visibility: 7mi
Dew Point: 18°   Wind: 0mph
Humidity: 97%   Direction: NA
Pressure: 30.29"   Gusts: NA
Location:  43.8338°N, 83.2671°W
Report Text: KBAX 211115Z AUTO 00000KT 7SM BKN038 OVC065 M07/M08 A3029 RMK AO2 T10751079
Loading
Personal Weather Stations






























Interactive Weather Map New forecast layout! Learn more

10-Day Weather Forecast

Advertisements
Track Severe Weather on mobile